sensor_id;sensor_type;location;lat;lon;timestamp;P1;durP1;ratioP1;P2;durP2;ratioP2
21101;SDS011;10709;49.006;12.100;2022-07-29T00:01:43;5.05;;;3.05;;
21101;SDS011;10709;49.006;12.100;2022-07-29T00:04:10;3.42;;;2.70;;
21101;SDS011;10709;49.006;12.100;2022-07-29T00:06:37;3.17;;;2.60;;
21101;SDS011;10709;49.006;12.100;2022-07-29T00:09:04;8.07;;;2.97;;
21101;SDS011;10709;49.006;12.100;2022-07-29T00:11:30;4.45;;;3.03;;
21101;SDS011;10709;49.006;12.100;2022-07-29T00:13:57;4.45;;;3.00;;
21101;SDS011;10709;49.006;12.100;2022-07-29T00:16:23;3.00;;;2.67;;
21101;SDS011;10709;49.006;12.100;2022-07-29T00:18:50;4.00;;;2.97;;
21101;SDS011;10709;49.006;12.100;2022-07-29T00:21:16;5.05;;;3.05;;
21101;SDS011;10709;49.006;12.100;2022-07-29T00:23:43;3.35;;;2.70;;
21101;SDS011;10709;49.006;12.100;2022-07-29T00:26:09;4.60;;;2.70;;
21101;SDS011;10709;49.006;12.100;2022-07-29T00:28:36;3.03;;;2.60;;
21101;SDS011;10709;49.006;12.100;2022-07-29T00:31:02;5.40;;;2.70;;
21101;SDS011;10709;49.006;12.100;2022-07-29T00:33:29;3.65;;;2.72;;
21101;SDS011;10709;49.006;12.100;2022-07-29T00:35:55;3.50;;;2.53;;
21101;SDS011;10709;49.006;12.100;2022-07-29T00:38:22;4.53;;;2.60;;
21101;SDS011;10709;49.006;12.100;2022-07-29T00:40:48;3.00;;;2.70;;
21101;SDS011;10709;49.006;12.100;2022-07-29T00:43:15;5.22;;;2.63;;
21101;SDS011;10709;49.006;12.100;2022-07-29T00:45:43;4.20;;;2.92;;
21101;SDS011;10709;49.006;12.100;2022-07-29T00:48:09;5.78;;;3.00;;
21101;SDS011;10709;49.006;12.100;2022-07-29T00:50:36;5.05;;;3.00;;
21101;SDS011;10709;49.006;12.100;2022-07-29T00:53:05;7.38;;;2.80;;
21101;SDS011;10709;49.006;12.100;2022-07-29T00:55:32;3.75;;;2.70;;
21101;SDS011;10709;49.006;12.100;2022-07-29T00:57:59;3.38;;;2.40;;
21101;SDS011;10709;49.006;12.100;2022-07-29T01:00:26;4.05;;;2.60;;
21101;SDS011;10709;49.006;12.100;2022-07-29T01:02:54;6.07;;;2.83;;
21101;SDS011;10709;49.006;12.100;2022-07-29T01:05:21;4.80;;;2.58;;
21101;SDS011;10709;49.006;12.100;2022-07-29T01:08:11;3.08;;;2.42;;
21101;SDS011;10709;49.006;12.100;2022-07-29T01:10:40;2.55;;;2.20;;
21101;SDS011;10709;49.006;12.100;2022-07-29T01:13:08;4.75;;;3.03;;
21101;SDS011;10709;49.006;12.100;2022-07-29T01:15:46;4.15;;;2.50;;
21101;SDS011;10709;49.006;12.100;2022-07-29T01:21:14;3.58;;;2.42;;
21101;SDS011;10709;49.006;12.100;2022-07-29T01:26:45;3.80;;;2.42;;
21101;SDS011;10709;49.006;12.100;2022-07-29T01:35:02;4.90;;;2.70;;
21101;SDS011;10709;49.006;12.100;2022-07-29T01:40:20;3.28;;;2.80;;
21101;SDS011;10709;49.006;12.100;2022-07-29T01:42:54;7.95;;;2.95;;
21101;SDS011;10709;49.006;12.100;2022-07-29T01:45:25;2.92;;;2.58;;
21101;SDS011;10709;49.006;12.100;2022-07-29T01:50:40;3.42;;;2.70;;
21101;SDS011;10709;49.006;12.100;2022-07-29T01:53:12;3.58;;;2.97;;
21101;SDS011;10709;49.006;12.100;2022-07-29T01:55:47;4.25;;;2.80;;
21101;SDS011;10709;49.006;12.100;2022-07-29T01:58:16;3.20;;;2.90;;
21101;SDS011;10709;49.006;12.100;2022-07-29T02:00:45;5.00;;;3.50;;
21101;SDS011;10709;49.006;12.100;2022-07-29T02:03:14;3.85;;;2.90;;
21101;SDS011;10709;49.006;12.100;2022-07-29T02:05:44;4.20;;;3.00;;
21101;SDS011;10709;49.006;12.100;2022-07-29T02:08:14;4.85;;;2.40;;
21101;SDS011;10709;49.006;12.100;2022-07-29T02:10:43;4.15;;;2.70;;
21101;SDS011;10709;49.006;12.100;2022-07-29T02:13:11;3.00;;;2.72;;
21101;SDS011;10709;49.006;12.100;2022-07-29T02:15:39;3.92;;;3.00;;
21101;SDS011;10709;49.006;12.100;2022-07-29T02:18:18;5.15;;;2.80;;
21101;SDS011;10709;49.006;12.100;2022-07-29T02:20:49;4.60;;;3.22;;
21101;SDS011;10709;49.006;12.100;2022-07-29T02:23:20;3.75;;;3.35;;
21101;SDS011;10709;49.006;12.100;2022-07-29T02:25:49;5.28;;;2.95;;
21101;SDS011;10709;49.006;12.100;2022-07-29T02:28:18;3.92;;;2.92;;
21101;SDS011;10709;49.006;12.100;2022-07-29T02:30:48;5.05;;;3.08;;
21101;SDS011;10709;49.006;12.100;2022-07-29T02:33:18;4.43;;;3.28;;
21101;SDS011;10709;49.006;12.100;2022-07-29T02:35:46;4.80;;;3.50;;
21101;SDS011;10709;49.006;12.100;2022-07-29T02:38:15;3.60;;;2.60;;
21101;SDS011;10709;49.006;12.100;2022-07-29T02:41:10;5.13;;;3.10;;
21101;SDS011;10709;49.006;12.100;2022-07-29T02:43:39;8.38;;;3.20;;
21101;SDS011;10709;49.006;12.100;2022-07-29T02:46:08;5.93;;;3.10;;
21101;SDS011;10709;49.006;12.100;2022-07-29T02:48:59;3.38;;;2.60;;
21101;SDS011;10709;49.006;12.100;2022-07-29T02:51:34;4.32;;;2.60;;
21101;SDS011;10709;49.006;12.100;2022-07-29T02:54:26;4.43;;;3.25;;
21101;SDS011;10709;49.006;12.100;2022-07-29T02:57:01;6.85;;;3.08;;
21101;SDS011;10709;49.006;12.100;2022-07-29T02:59:32;4.13;;;2.40;;
21101;SDS011;10709;49.006;12.100;2022-07-29T03:02:02;5.57;;;3.10;;
21101;SDS011;10709;49.006;12.100;2022-07-29T03:04:31;5.07;;;2.80;;
21101;SDS011;10709;49.006;12.100;2022-07-29T03:07:00;5.15;;;2.90;;
21101;SDS011;10709;49.006;12.100;2022-07-29T03:09:28;3.63;;;2.88;;
21101;SDS011;10709;49.006;12.100;2022-07-29T03:11:55;3.63;;;2.60;;
21101;SDS011;10709;49.006;12.100;2022-07-29T03:14:23;7.22;;;2.58;;
21101;SDS011;10709;49.006;12.100;2022-07-29T03:16:50;4.75;;;2.70;;
21101;SDS011;10709;49.006;12.100;2022-07-29T03:19:18;3.63;;;2.58;;
21101;SDS011;10709;49.006;12.100;2022-07-29T03:21:46;5.47;;;3.20;;
21101;SDS011;10709;49.006;12.100;2022-07-29T03:24:25;5.10;;;3.08;;
21101;SDS011;10709;49.006;12.100;2022-07-29T03:26:54;3.75;;;2.97;;
21101;SDS011;10709;49.006;12.100;2022-07-29T03:29:22;3.60;;;2.92;;
21101;SDS011;10709;49.006;12.100;2022-07-29T03:31:49;5.50;;;3.13;;
21101;SDS011;10709;49.006;12.100;2022-07-29T03:34:16;3.42;;;2.92;;
21101;SDS011;10709;49.006;12.100;2022-07-29T03:36:43;4.00;;;3.40;;
21101;SDS011;10709;49.006;12.100;2022-07-29T03:39:09;11.15;;;3.40;;
21101;SDS011;10709;49.006;12.100;2022-07-29T03:41:39;3.58;;;2.97;;
21101;SDS011;10709;49.006;12.100;2022-07-29T03:44:09;3.95;;;2.90;;
21101;SDS011;10709;49.006;12.100;2022-07-29T03:46:37;3.20;;;2.63;;
21101;SDS011;10709;49.006;12.100;2022-07-29T03:49:05;4.28;;;2.90;;
21101;SDS011;10709;49.006;12.100;2022-07-29T03:51:34;3.53;;;2.40;;
21101;SDS011;10709;49.006;12.100;2022-07-29T03:54:02;3.65;;;2.80;;
21101;SDS011;10709;49.006;12.100;2022-07-29T03:56:37;4.68;;;2.70;;
21101;SDS011;10709;49.006;12.100;2022-07-29T03:59:06;5.78;;;2.95;;
21101;SDS011;10709;49.006;12.100;2022-07-29T04:01:33;3.35;;;2.85;;
21101;SDS011;10709;49.006;12.100;2022-07-29T04:04:01;4.35;;;2.88;;
21101;SDS011;10709;49.006;12.100;2022-07-29T04:06:28;5.55;;;2.65;;
21101;SDS011;10709;49.006;12.100;2022-07-29T04:08:55;3.05;;;2.75;;
21101;SDS011;10709;49.006;12.100;2022-07-29T04:11:21;5.45;;;3.38;;
21101;SDS011;10709;49.006;12.100;2022-07-29T04:13:48;6.32;;;2.92;;
21101;SDS011;10709;49.006;12.100;2022-07-29T04:16:14;5.60;;;2.97;;
21101;SDS011;10709;49.006;12.100;2022-07-29T04:18:41;3.30;;;2.80;;
21101;SDS011;10709;49.006;12.100;2022-07-29T04:21:07;5.53;;;2.88;;
21101;SDS011;10709;49.006;12.100;2022-07-29T04:23:34;3.08;;;2.83;;
21101;SDS011;10709;49.006;12.100;2022-07-29T04:26:13;4.68;;;2.80;;
21101;SDS011;10709;49.006;12.100;2022-07-29T04:28:39;5.07;;;3.05;;
21101;SDS011;10709;49.006;12.100;2022-07-29T04:31:06;5.50;;;3.10;;
21101;SDS011;10709;49.006;12.100;2022-07-29T04:33:33;3.92;;;2.75;;
21101;SDS011;10709;49.006;12.100;2022-07-29T04:35:59;4.28;;;2.72;;
21101;SDS011;10709;49.006;12.100;2022-07-29T04:38:26;4.65;;;2.90;;
21101;SDS011;10709;49.006;12.100;2022-07-29T04:40:52;3.78;;;2.80;;
21101;SDS011;10709;49.006;12.100;2022-07-29T04:43:19;3.70;;;3.00;;
21101;SDS011;10709;49.006;12.100;2022-07-29T04:45:48;4.85;;;2.85;;
21101;SDS011;10709;49.006;12.100;2022-07-29T04:48:15;3.53;;;2.97;;
21101;SDS011;10709;49.006;12.100;2022-07-29T04:50:42;5.15;;;2.92;;
21101;SDS011;10709;49.006;12.100;2022-07-29T04:53:10;4.93;;;2.90;;
21101;SDS011;10709;49.006;12.100;2022-07-29T04:55:36;4.78;;;3.20;;
21101;SDS011;10709;49.006;12.100;2022-07-29T04:58:04;4.38;;;2.95;;
21101;SDS011;10709;49.006;12.100;2022-07-29T05:00:30;3.88;;;3.20;;
21101;SDS011;10709;49.006;12.100;2022-07-29T05:02:58;6.07;;;2.90;;
21101;SDS011;10709;49.006;12.100;2022-07-29T05:05:25;3.95;;;3.08;;
21101;SDS011;10709;49.006;12.100;2022-07-29T05:07:52;6.53;;;2.92;;
21101;SDS011;10709;49.006;12.100;2022-07-29T05:10:18;3.58;;;2.90;;
21101;SDS011;10709;49.006;12.100;2022-07-29T05:12:45;6.30;;;3.25;;
21101;SDS011;10709;49.006;12.100;2022-07-29T05:15:11;6.45;;;3.10;;
21101;SDS011;10709;49.006;12.100;2022-07-29T05:17:38;5.50;;;2.97;;
21101;SDS011;10709;49.006;12.100;2022-07-29T05:20:05;4.03;;;3.20;;
21101;SDS011;10709;49.006;12.100;2022-07-29T05:22:32;5.20;;;2.80;;
21101;SDS011;10709;49.006;12.100;2022-07-29T05:24:59;8.20;;;3.15;;
21101;SDS011;10709;49.006;12.100;2022-07-29T05:27:30;5.57;;;3.22;;
21101;SDS011;10709;49.006;12.100;2022-07-29T05:29:57;4.45;;;2.83;;
21101;SDS011;10709;49.006;12.100;2022-07-29T05:32:23;2.97;;;2.47;;
21101;SDS011;10709;49.006;12.100;2022-07-29T05:34:50;4.57;;;3.08;;
21101;SDS011;10709;49.006;12.100;2022-07-29T05:37:20;5.65;;;2.72;;
21101;SDS011;10709;49.006;12.100;2022-07-29T05:39:46;5.82;;;3.38;;
21101;SDS011;10709;49.006;12.100;2022-07-29T05:42:21;7.18;;;2.95;;
21101;SDS011;10709;49.006;12.100;2022-07-29T05:44:48;6.35;;;2.70;;
21101;SDS011;10709;49.006;12.100;2022-07-29T05:47:14;3.38;;;2.75;;
21101;SDS011;10709;49.006;12.100;2022-07-29T05:49:40;4.70;;;2.90;;
21101;SDS011;10709;49.006;12.100;2022-07-29T05:52:07;5.43;;;2.78;;
21101;SDS011;10709;49.006;12.100;2022-07-29T05:54:35;6.65;;;3.10;;
21101;SDS011;10709;49.006;12.100;2022-07-29T05:57:02;5.97;;;3.40;;
21101;SDS011;10709;49.006;12.100;2022-07-29T05:59:28;6.72;;;3.30;;
21101;SDS011;10709;49.006;12.100;2022-07-29T06:01:55;5.00;;;3.17;;
21101;SDS011;10709;49.006;12.100;2022-07-29T06:04:23;3.97;;;2.88;;
21101;SDS011;10709;49.006;12.100;2022-07-29T06:06:50;4.85;;;2.97;;
21101;SDS011;10709;49.006;12.100;2022-07-29T06:09:16;5.25;;;3.00;;
21101;SDS011;10709;49.006;12.100;2022-07-29T06:11:43;6.88;;;3.10;;
21101;SDS011;10709;49.006;12.100;2022-07-29T06:14:09;6.93;;;3.30;;
21101;SDS011;10709;49.006;12.100;2022-07-29T06:16:36;4.35;;;2.85;;
21101;SDS011;10709;49.006;12.100;2022-07-29T06:19:03;4.28;;;2.67;;
21101;SDS011;10709;49.006;12.100;2022-07-29T06:21:30;6.57;;;3.05;;
21101;SDS011;10709;49.006;12.100;2022-07-29T06:23:56;5.93;;;2.50;;
21101;SDS011;10709;49.006;12.100;2022-07-29T06:26:23;3.97;;;2.65;;
21101;SDS011;10709;49.006;12.100;2022-07-29T06:28:56;6.57;;;3.33;;
21101;SDS011;10709;49.006;12.100;2022-07-29T06:31:23;5.78;;;3.00;;
21101;SDS011;10709;49.006;12.100;2022-07-29T06:33:49;10.77;;;3.33;;
21101;SDS011;10709;49.006;12.100;2022-07-29T06:36:16;8.82;;;3.70;;
21101;SDS011;10709;49.006;12.100;2022-07-29T06:38:42;10.95;;;3.50;;
21101;SDS011;10709;49.006;12.100;2022-07-29T06:41:16;7.75;;;3.50;;
21101;SDS011;10709;49.006;12.100;2022-07-29T06:43:43;6.97;;;3.60;;
21101;SDS011;10709;49.006;12.100;2022-07-29T06:46:19;12.50;;;3.28;;
21101;SDS011;10709;49.006;12.100;2022-07-29T06:48:47;6.55;;;2.92;;
21101;SDS011;10709;49.006;12.100;2022-07-29T06:51:15;4.18;;;2.83;;
21101;SDS011;10709;49.006;12.100;2022-07-29T06:53:48;8.77;;;3.20;;
21101;SDS011;10709;49.006;12.100;2022-07-29T06:56:28;6.68;;;3.03;;
21101;SDS011;10709;49.006;12.100;2022-07-29T06:58:56;5.65;;;3.00;;
21101;SDS011;10709;49.006;12.100;2022-07-29T07:01:22;8.45;;;3.13;;
21101;SDS011;10709;49.006;12.100;2022-07-29T07:03:49;49.90;;;5.03;;
21101;SDS011;10709;49.006;12.100;2022-07-29T07:06:15;11.00;;;3.10;;
21101;SDS011;10709;49.006;12.100;2022-07-29T07:08:42;7.35;;;3.50;;
21101;SDS011;10709;49.006;12.100;2022-07-29T07:11:09;6.20;;;3.35;;
21101;SDS011;10709;49.006;12.100;2022-07-29T07:13:35;7.95;;;3.28;;
21101;SDS011;10709;49.006;12.100;2022-07-29T07:16:02;11.65;;;3.45;;
21101;SDS011;10709;49.006;12.100;2022-07-29T07:18:29;6.18;;;3.03;;
21101;SDS011;10709;49.006;12.100;2022-07-29T07:20:56;56.92;;;5.07;;
21101;SDS011;10709;49.006;12.100;2022-07-29T07:23:24;33.17;;;4.22;;
21101;SDS011;10709;49.006;12.100;2022-07-29T07:25:51;5.55;;;3.22;;
21101;SDS011;10709;49.006;12.100;2022-07-29T07:28:18;18.13;;;4.10;;
21101;SDS011;10709;49.006;12.100;2022-07-29T07:30:50;106.72;;;9.43;;
21101;SDS011;10709;49.006;12.100;2022-07-29T07:33:17;58.33;;;5.93;;
21101;SDS011;10709;49.006;12.100;2022-07-29T07:35:44;17.00;;;4.47;;
21101;SDS011;10709;49.006;12.100;2022-07-29T07:38:11;23.92;;;4.45;;
21101;SDS011;10709;49.006;12.100;2022-07-29T07:40:37;6.88;;;3.55;;
21101;SDS011;10709;49.006;12.100;2022-07-29T07:43:04;7.30;;;3.60;;
21101;SDS011;10709;49.006;12.100;2022-07-29T07:45:30;5.53;;;3.60;;
21101;SDS011;10709;49.006;12.100;2022-07-29T07:47:59;5.80;;;3.50;;
21101;SDS011;10709;49.006;12.100;2022-07-29T07:50:26;6.15;;;3.88;;
21101;SDS011;10709;49.006;12.100;2022-07-29T07:52:53;6.35;;;3.67;;
21101;SDS011;10709;49.006;12.100;2022-07-29T07:55:24;11.85;;;5.03;;
21101;SDS011;10709;49.006;12.100;2022-07-29T07:57:51;5.55;;;3.95;;
21101;SDS011;10709;49.006;12.100;2022-07-29T08:00:17;6.88;;;3.70;;
21101;SDS011;10709;49.006;12.100;2022-07-29T08:02:47;5.75;;;3.47;;
21101;SDS011;10709;49.006;12.100;2022-07-29T08:05:14;6.50;;;3.78;;
21101;SDS011;10709;49.006;12.100;2022-07-29T08:07:44;3.88;;;3.47;;
21101;SDS011;10709;49.006;12.100;2022-07-29T08:10:13;5.70;;;3.50;;
21101;SDS011;10709;49.006;12.100;2022-07-29T08:13:06;8.75;;;4.15;;
21101;SDS011;10709;49.006;12.100;2022-07-29T08:15:33;36.53;;;6.13;;
21101;SDS011;10709;49.006;12.100;2022-07-29T08:18:01;7.93;;;4.10;;
21101;SDS011;10709;49.006;12.100;2022-07-29T08:20:34;5.80;;;3.85;;
21101;SDS011;10709;49.006;12.100;2022-07-29T08:23:02;7.82;;;4.00;;
21101;SDS011;10709;49.006;12.100;2022-07-29T08:25:29;5.93;;;3.90;;
21101;SDS011;10709;49.006;12.100;2022-07-29T08:27:55;6.45;;;3.60;;
21101;SDS011;10709;49.006;12.100;2022-07-29T08:30:22;7.55;;;3.95;;
21101;SDS011;10709;49.006;12.100;2022-07-29T08:32:49;7.35;;;4.20;;
21101;SDS011;10709;49.006;12.100;2022-07-29T08:35:20;6.85;;;3.92;;
21101;SDS011;10709;49.006;12.100;2022-07-29T08:37:48;5.65;;;3.75;;
21101;SDS011;10709;49.006;12.100;2022-07-29T08:40:14;5.65;;;3.45;;
21101;SDS011;10709;49.006;12.100;2022-07-29T08:42:41;8.77;;;5.93;;
21101;SDS011;10709;49.006;12.100;2022-07-29T08:45:08;8.70;;;5.15;;
21101;SDS011;10709;49.006;12.100;2022-07-29T08:47:35;7.82;;;5.13;;
21101;SDS011;10709;49.006;12.100;2022-07-29T08:50:09;8.10;;;4.63;;
21101;SDS011;10709;49.006;12.100;2022-07-29T08:52:37;9.23;;;5.90;;
21101;SDS011;10709;49.006;12.100;2022-07-29T08:55:06;8.13;;;5.45;;
21101;SDS011;10709;49.006;12.100;2022-07-29T08:57:34;9.38;;;5.53;;
21101;SDS011;10709;49.006;12.100;2022-07-29T09:00:05;10.60;;;4.60;;
21101;SDS011;10709;49.006;12.100;2022-07-29T09:02:41;4.95;;;4.18;;
21101;SDS011;10709;49.006;12.100;2022-07-29T09:05:13;7.07;;;4.70;;
21101;SDS011;10709;49.006;12.100;2022-07-29T09:07:40;6.90;;;4.43;;
21101;SDS011;10709;49.006;12.100;2022-07-29T09:10:09;6.18;;;4.43;;
21101;SDS011;10709;49.006;12.100;2022-07-29T09:12:36;10.25;;;5.20;;
21101;SDS011;10709;49.006;12.100;2022-07-29T09:15:03;6.13;;;4.70;;
21101;SDS011;10709;49.006;12.100;2022-07-29T09:20:26;9.13;;;5.85;;
21101;SDS011;10709;49.006;12.100;2022-07-29T09:23:13;8.10;;;5.38;;
21101;SDS011;10709;49.006;12.100;2022-07-29T09:25:49;7.38;;;5.88;;
21101;SDS011;10709;49.006;12.100;2022-07-29T09:28:16;7.47;;;5.72;;
21101;SDS011;10709;49.006;12.100;2022-07-29T09:30:50;7.80;;;5.43;;
21101;SDS011;10709;49.006;12.100;2022-07-29T09:33:21;9.25;;;5.50;;
21101;SDS011;10709;49.006;12.100;2022-07-29T09:35:58;7.75;;;5.63;;
21101;SDS011;10709;49.006;12.100;2022-07-29T09:38:33;6.25;;;4.95;;
21101;SDS011;10709;49.006;12.100;2022-07-29T09:41:02;8.23;;;4.65;;
21101;SDS011;10709;49.006;12.100;2022-07-29T09:43:31;8.80;;;5.13;;
21101;SDS011;10709;49.006;12.100;2022-07-29T09:46:11;5.30;;;4.55;;
21101;SDS011;10709;49.006;12.100;2022-07-29T09:48:38;5.75;;;5.03;;
21101;SDS011;10709;49.006;12.100;2022-07-29T09:51:05;7.32;;;4.40;;
21101;SDS011;10709;49.006;12.100;2022-07-29T09:53:47;8.38;;;4.50;;
21101;SDS011;10709;49.006;12.100;2022-07-29T09:56:13;5.70;;;4.47;;
21101;SDS011;10709;49.006;12.100;2022-07-29T09:58:40;6.00;;;4.20;;
21101;SDS011;10709;49.006;12.100;2022-07-29T10:01:06;5.28;;;4.22;;
21101;SDS011;10709;49.006;12.100;2022-07-29T10:03:36;5.43;;;3.90;;
21101;SDS011;10709;49.006;12.100;2022-07-29T10:06:16;4.93;;;3.92;;
21101;SDS011;10709;49.006;12.100;2022-07-29T10:08:43;6.15;;;4.05;;
21101;SDS011;10709;49.006;12.100;2022-07-29T10:11:13;4.22;;;3.90;;
21101;SDS011;10709;49.006;12.100;2022-07-29T10:13:42;5.47;;;4.15;;
21101;SDS011;10709;49.006;12.100;2022-07-29T10:16:10;8.05;;;3.80;;
21101;SDS011;10709;49.006;12.100;2022-07-29T10:18:39;4.07;;;3.75;;
21101;SDS011;10709;49.006;12.100;2022-07-29T10:21:07;4.22;;;3.80;;
21101;SDS011;10709;49.006;12.100;2022-07-29T10:23:34;4.32;;;3.92;;
21101;SDS011;10709;49.006;12.100;2022-07-29T10:26:12;3.97;;;3.50;;
21101;SDS011;10709;49.006;12.100;2022-07-29T10:28:39;4.70;;;3.60;;
21101;SDS011;10709;49.006;12.100;2022-07-29T10:31:06;4.28;;;3.50;;
21101;SDS011;10709;49.006;12.100;2022-07-29T10:36:25;3.53;;;3.13;;
21101;SDS011;10709;49.006;12.100;2022-07-29T10:39:16;3.45;;;3.15;;
21101;SDS011;10709;49.006;12.100;2022-07-29T10:42:11;4.97;;;3.03;;
21101;SDS011;10709;49.006;12.100;2022-07-29T10:44:59;4.63;;;3.00;;
21101;SDS011;10709;49.006;12.100;2022-07-29T10:47:26;3.70;;;2.60;;
21101;SDS011;10709;49.006;12.100;2022-07-29T10:49:55;3.15;;;2.85;;
21101;SDS011;10709;49.006;12.100;2022-07-29T10:52:22;3.50;;;3.20;;
21101;SDS011;10709;49.006;12.100;2022-07-29T10:54:55;3.78;;;3.05;;
21101;SDS011;10709;49.006;12.100;2022-07-29T10:57:25;4.13;;;2.90;;
21101;SDS011;10709;49.006;12.100;2022-07-29T11:02:43;3.92;;;2.78;;
21101;SDS011;10709;49.006;12.100;2022-07-29T11:05:18;3.38;;;2.70;;
21101;SDS011;10709;49.006;12.100;2022-07-29T11:10:46;3.03;;;2.60;;
21101;SDS011;10709;49.006;12.100;2022-07-29T11:13:44;3.03;;;2.67;;
21101;SDS011;10709;49.006;12.100;2022-07-29T11:16:09;3.47;;;2.75;;
21101;SDS011;10709;49.006;12.100;2022-07-29T11:18:36;3.67;;;2.67;;
21101;SDS011;10709;49.006;12.100;2022-07-29T11:21:54;3.47;;;2.72;;
21101;SDS011;10709;49.006;12.100;2022-07-29T11:24:25;4.07;;;2.60;;
21101;SDS011;10709;49.006;12.100;2022-07-29T11:27:05;4.60;;;2.50;;
21101;SDS011;10709;49.006;12.100;2022-07-29T11:29:34;2.55;;;2.30;;
21101;SDS011;10709;49.006;12.100;2022-07-29T11:32:11;3.78;;;2.30;;
21101;SDS011;10709;49.006;12.100;2022-07-29T11:34:48;3.85;;;2.40;;
21101;SDS011;10709;49.006;12.100;2022-07-29T11:37:15;5.93;;;2.20;;
21101;SDS011;10709;49.006;12.100;2022-07-29T11:39:46;2.53;;;2.33;;
21101;SDS011;10709;49.006;12.100;2022-07-29T11:45:17;2.60;;;2.30;;
21101;SDS011;10709;49.006;12.100;2022-07-29T11:48:05;2.50;;;2.30;;
21101;SDS011;10709;49.006;12.100;2022-07-29T11:50:53;3.42;;;2.17;;
21101;SDS011;10709;49.006;12.100;2022-07-29T11:53:20;3.25;;;2.10;;
21101;SDS011;10709;49.006;12.100;2022-07-29T11:55:47;2.80;;;2.60;;
21101;SDS011;10709;49.006;12.100;2022-07-29T11:58:23;2.50;;;2.30;;
21101;SDS011;10709;49.006;12.100;2022-07-29T12:00:51;2.40;;;2.17;;
21101;SDS011;10709;49.006;12.100;2022-07-29T12:03:24;2.50;;;2.30;;
21101;SDS011;10709;49.006;12.100;2022-07-29T12:06:02;2.72;;;2.38;;
21101;SDS011;10709;49.006;12.100;2022-07-29T12:08:43;2.85;;;2.10;;
21101;SDS011;10709;49.006;12.100;2022-07-29T12:11:17;3.25;;;2.22;;
21101;SDS011;10709;49.006;12.100;2022-07-29T12:13:47;3.90;;;2.38;;
21101;SDS011;10709;49.006;12.100;2022-07-29T12:16:14;2.55;;;2.30;;
21101;SDS011;10709;49.006;12.100;2022-07-29T12:18:54;4.45;;;2.42;;
21101;SDS011;10709;49.006;12.100;2022-07-29T12:21:24;2.10;;;1.90;;
21101;SDS011;10709;49.006;12.100;2022-07-29T12:23:54;4.43;;;2.10;;
21101;SDS011;10709;49.006;12.100;2022-07-29T12:26:30;2.08;;;1.98;;
21101;SDS011;10709;49.006;12.100;2022-07-29T12:28:59;2.78;;;2.03;;
21101;SDS011;10709;49.006;12.100;2022-07-29T12:31:28;3.80;;;2.28;;
21101;SDS011;10709;49.006;12.100;2022-07-29T12:34:10;3.17;;;2.05;;
21101;SDS011;10709;49.006;12.100;2022-07-29T12:36:37;2.88;;;1.90;;
21101;SDS011;10709;49.006;12.100;2022-07-29T12:39:04;4.45;;;2.33;;
21101;SDS011;10709;49.006;12.100;2022-07-29T12:41:31;3.22;;;2.03;;
21101;SDS011;10709;49.006;12.100;2022-07-29T12:43:58;2.72;;;2.00;;
21101;SDS011;10709;49.006;12.100;2022-07-29T12:46:24;2.20;;;2.00;;
21101;SDS011;10709;49.006;12.100;2022-07-29T12:48:51;2.10;;;1.90;;
21101;SDS011;10709;49.006;12.100;2022-07-29T12:51:37;3.08;;;2.00;;
21101;SDS011;10709;49.006;12.100;2022-07-29T12:54:14;2.03;;;1.75;;
21101;SDS011;10709;49.006;12.100;2022-07-29T12:56:42;2.40;;;1.77;;
21101;SDS011;10709;49.006;12.100;2022-07-29T12:59:15;2.38;;;1.90;;
21101;SDS011;10709;49.006;12.100;2022-07-29T13:01:45;3.33;;;1.70;;
21101;SDS011;10709;49.006;12.100;2022-07-29T13:04:25;3.22;;;1.90;;
21101;SDS011;10709;49.006;12.100;2022-07-29T13:07:00;3.13;;;2.08;;
21101;SDS011;10709;49.006;12.100;2022-07-29T13:09:37;6.75;;;2.10;;
21101;SDS011;10709;49.006;12.100;2022-07-29T13:12:06;2.03;;;1.90;;
21101;SDS011;10709;49.006;12.100;2022-07-29T13:14:39;2.58;;;1.88;;
21101;SDS011;10709;49.006;12.100;2022-07-29T13:17:08;1.75;;;1.65;;
21101;SDS011;10709;49.006;12.100;2022-07-29T13:22:12;2.00;;;1.80;;
21101;SDS011;10709;49.006;12.100;2022-07-29T13:24:47;1.85;;;1.73;;
21101;SDS011;10709;49.006;12.100;2022-07-29T13:27:15;2.17;;;1.73;;
21101;SDS011;10709;49.006;12.100;2022-07-29T13:29:42;2.30;;;1.83;;
21101;SDS011;10709;49.006;12.100;2022-07-29T13:32:10;1.98;;;1.60;;
21101;SDS011;10709;49.006;12.100;2022-07-29T13:34:38;3.47;;;1.90;;
21101;SDS011;10709;49.006;12.100;2022-07-29T13:37:05;1.60;;;1.40;;
21101;SDS011;10709;49.006;12.100;2022-07-29T13:39:31;2.30;;;1.80;;
21101;SDS011;10709;49.006;12.100;2022-07-29T13:41:58;1.67;;;1.58;;
21101;SDS011;10709;49.006;12.100;2022-07-29T13:44:25;1.60;;;1.50;;
21101;SDS011;10709;49.006;12.100;2022-07-29T13:46:52;1.95;;;1.70;;
21101;SDS011;10709;49.006;12.100;2022-07-29T13:49:18;2.97;;;1.90;;
21101;SDS011;10709;49.006;12.100;2022-07-29T13:51:45;3.97;;;1.88;;
21101;SDS011;10709;49.006;12.100;2022-07-29T13:54:11;2.40;;;1.70;;
21101;SDS011;10709;49.006;12.100;2022-07-29T13:56:38;1.60;;;1.50;;
21101;SDS011;10709;49.006;12.100;2022-07-29T13:59:04;2.95;;;1.40;;
21101;SDS011;10709;49.006;12.100;2022-07-29T14:01:31;1.85;;;1.48;;
21101;SDS011;10709;49.006;12.100;2022-07-29T14:03:57;1.90;;;1.40;;
21101;SDS011;10709;49.006;12.100;2022-07-29T14:06:24;2.08;;;1.60;;
21101;SDS011;10709;49.006;12.100;2022-07-29T14:08:51;1.95;;;1.50;;
21101;SDS011;10709;49.006;12.100;2022-07-29T14:11:17;1.45;;;1.30;;
21101;SDS011;10709;49.006;12.100;2022-07-29T14:13:44;1.60;;;1.50;;
21101;SDS011;10709;49.006;12.100;2022-07-29T14:16:10;1.77;;;1.67;;
21101;SDS011;10709;49.006;12.100;2022-07-29T14:18:37;1.70;;;1.60;;
21101;SDS011;10709;49.006;12.100;2022-07-29T14:21:04;3.40;;;2.13;;
21101;SDS011;10709;49.006;12.100;2022-07-29T14:23:30;2.30;;;2.10;;
21101;SDS011;10709;49.006;12.100;2022-07-29T14:25:57;2.20;;;2.00;;
21101;SDS011;10709;49.006;12.100;2022-07-29T14:28:24;4.32;;;2.10;;
21101;SDS011;10709;49.006;12.100;2022-07-29T14:30:50;2.75;;;1.98;;
21101;SDS011;10709;49.006;12.100;2022-07-29T14:33:17;2.45;;;2.00;;
21101;SDS011;10709;49.006;12.100;2022-07-29T14:35:44;3.47;;;1.80;;
21101;SDS011;10709;49.006;12.100;2022-07-29T14:38:10;2.58;;;2.00;;
21101;SDS011;10709;49.006;12.100;2022-07-29T14:40:37;3.63;;;1.77;;
21101;SDS011;10709;49.006;12.100;2022-07-29T14:43:04;4.07;;;2.03;;
21101;SDS011;10709;49.006;12.100;2022-07-29T14:45:30;1.88;;;1.65;;
21101;SDS011;10709;49.006;12.100;2022-07-29T14:47:57;3.80;;;1.70;;
21101;SDS011;10709;49.006;12.100;2022-07-29T14:50:24;1.65;;;1.52;;
21101;SDS011;10709;49.006;12.100;2022-07-29T14:52:57;2.78;;;1.50;;
21101;SDS011;10709;49.006;12.100;2022-07-29T14:55:24;2.00;;;1.55;;
21101;SDS011;10709;49.006;12.100;2022-07-29T14:57:51;1.40;;;1.30;;
21101;SDS011;10709;49.006;12.100;2022-07-29T15:00:28;3.15;;;1.75;;
21101;SDS011;10709;49.006;12.100;2022-07-29T15:02:58;1.90;;;1.50;;
21101;SDS011;10709;49.006;12.100;2022-07-29T15:05:29;1.67;;;1.55;;
21101;SDS011;10709;49.006;12.100;2022-07-29T15:07:56;3.20;;;1.60;;
21101;SDS011;10709;49.006;12.100;2022-07-29T15:10:23;5.28;;;1.50;;
21101;SDS011;10709;49.006;12.100;2022-07-29T15:12:49;3.25;;;1.85;;
21101;SDS011;10709;49.006;12.100;2022-07-29T15:15:16;2.55;;;1.65;;
21101;SDS011;10709;49.006;12.100;2022-07-29T15:17:42;1.60;;;1.50;;
21101;SDS011;10709;49.006;12.100;2022-07-29T15:20:09;2.10;;;1.60;;
21101;SDS011;10709;49.006;12.100;2022-07-29T15:22:37;1.92;;;1.38;;